Terminal Aerodrome Forecast
Issued by NWS

Home | Current Version | Previous Version | Text Only | Print | Product List | Glossary On
Versions: 1 2 3 4 5 6 7 8 9 10 11 12 13 14 15 16 17 18 19 20 21 22 23 24 25 26 27 28 29 30 31 32
000
FTUS44 KHGX 160524
TAFLBX
TAF
KLBX 160524Z 1606/1706 17013KT P6SM FEW025
     FM161000 17012KT P6SM SCT025
     FM161200 17013KT P6SM VCSH BKN025
     FM161600 17013G18KT P6SM VCTS SCT030CB
     FM161900 18013G22KT P6SM SCT035
     FM170100 19008KT P6SM SCT030=

USA.gov is the U.S. government's official web portal to all federal, state and local government web resources and services.